ポルト・アレグレ の空港の天気 - METARとTAF

ポルト・アレグレ国際空港 ( SBPA / POA ) - ブラジル リオグランデ・ド・スル州ポルト・アレグレ
飛行場実況気象(Metar)
観測時間02/17 11:00 BRT (02/17 14:00 UTC)
風向・風速東 5m/s
視程10km以上
天気現象
全天の8割程度の雲 雲底高度 1220m
気温26℃
湿度65%
気圧1015hPa
METARSBPA 171400Z 10010KT 060V130 9999 BKN040 26/19 Q1015
過去の天気等 Google飛行場航空写真 Wunderground天気予報

過去48時間のMETAR

飛行場予報(TAF)
発表時間: 2/17 06:00 BRT (2/17 09:00 UTC)
予報対象時間: 17日9時 BRT ~ 18日9時 BRT
風向・風速東南東 6m/s
視程10km以上
なし
17日9時 BRT ~ 17日11時 BRT に徐々に
視程10km以上
全天の4割程度の雲 雲底高度 1070m
17日11時 BRT ~ 17日13時 BRT に徐々に
全天の4割程度の雲 雲底高度 910m
少しの塔状積雲 雲底高度 1070m
17日19時 BRT ~ 17日21時 BRT に徐々に
風向・風速東 4m/s
視程10km以上
なし
TAF SBPA 170900Z 1712/1812 11012KT CAVOK TX28/1718Z TN20/1806Z
BECMG 1712/1714 9999 SCT035
BECMG 1714/1716 SCT030 FEW035TCU
BECMG 1722/1724 10008KT CAVOK RMK PDJ